Time;durP1;ratioP1;P1;durP2;ratioP2;P2;SDS_P1;SDS_P2;PMS_P1;PMS_P2;Temp;Humidity;BMP_temperature;BMP_pressure;BME280_temperature;BME280_humidity;BME280_pressure;Samples;Min_cycle;Max_cycle;Signal;HPM_P1;HPM_P2
2022/10/11 00:01:12;;;;;;;27.73;7.53;;;;;;;;;;4958153;28;20047;-64
2022/10/11 00:03:38;;;;;;;34.60;9.33;;;;;;;;;;4960246;28;20130;-64
2022/10/11 00:06:05;;;;;;;23.57;6.57;;;;;;;;;;4960989;28;20046;-63
2022/10/11 00:08:31;;;;;;;25.10;7.27;;;;;;;;;;4964298;28;20126;-64
2022/10/11 00:11:01;;;;;;;26.20;6.87;;;;;;;;;;4959976;28;20045;-64
2022/10/11 00:13:28;;;;;;;22.20;5.90;;;;;;;;;;4964221;28;20122;-64
2022/10/11 00:15:55;;;;;;;30.10;7.27;;;;;;;;;;4968126;28;20054;-64
2022/10/11 00:18:21;;;;;;;29.20;7.40;;;;;;;;;;4959136;28;20058;-64
2022/10/11 00:20:47;;;;;;;28.13;7.40;;;;;;;;;;4958405;28;20698;-64
2022/10/11 00:23:13;;;;;;;34.30;7.70;;;;;;;;;;4961164;28;20074;-64
2022/10/11 00:25:40;;;;;;;28.17;6.57;;;;;;;;;;4963162;28;20050;-64
2022/10/11 00:28:06;;;;;;;27.03;6.30;;;;;;;;;;4960125;28;20106;-64
2022/10/11 00:30:32;;;;;;;25.20;7.23;;;;;;;;;;4963089;28;20125;-64
2022/10/11 00:32:59;;;;;;;17.57;5.80;;;;;;;;;;4960117;28;20106;-64
2022/10/11 00:35:25;;;;;;;25.43;5.97;;;;;;;;;;4963067;28;20047;-64
2022/10/11 00:37:51;;;;;;;29.67;5.70;;;;;;;;;;4959485;28;20062;-64
2022/10/11 00:40:18;;;;;;;21.40;6.57;;;;;;;;;;4958482;28;20050;-64
2022/10/11 00:42:44;;;;;;;17.87;6.53;;;;;;;;;;4955209;28;20132;-64
2022/10/11 00:45:25;;;;;;;24.57;7.33;;;;;;;;;;4959663;28;20139;-64
2022/10/11 00:47:52;;;;;;;32.80;7.67;;;;;;;;;;4960240;28;20057;-64
2022/10/11 00:50:20;;;;;;;33.07;7.57;;;;;;;;;;4962350;28;20047;-64
2022/10/11 00:52:49;;;;;;;29.30;7.70;;;;;;;;;;4959716;28;20409;-64
2022/10/11 00:55:18;;;;;;;29.67;6.53;;;;;;;;;;4964898;28;20038;-64
2022/10/11 00:57:47;;;;;;;35.43;8.77;;;;;;;;;;4960823;28;20587;-64
2022/10/11 01:00:13;;;;;;;24.23;6.90;;;;;;;;;;4960743;28;20110;-64
2022/10/11 01:02:40;;;;;;;26.20;7.63;;;;;;;;;;4961397;28;20062;-64
2022/10/11 01:05:18;;;;;;;20.07;5.57;;;;;;;;;;4957420;28;20046;-64
2022/10/11 01:07:45;;;;;;;36.83;8.30;;;;;;;;;;4957645;28;20046;-64
2022/10/11 01:10:12;;;;;;;38.03;8.27;;;;;;;;;;4955528;28;20043;-64
2022/10/11 01:12:40;;;;;;;33.13;7.77;;;;;;;;;;4962589;28;20083;-64
2022/10/11 01:15:16;;;;;;;33.30;8.03;;;;;;;;;;4962272;28;20043;-63
2022/10/11 01:17:42;;;;;;;26.00;7.83;;;;;;;;;;4957348;28;20160;-64
2022/10/11 01:20:29;;;;;;;34.13;7.00;;;;;;;;;;4962140;28;20054;-64
2022/10/11 01:23:14;;;;;;;29.20;6.53;;;;;;;;;;4957745;28;20404;-64
2022/10/11 01:25:40;;;;;;;32.83;8.73;;;;;;;;;;4959266;28;20073;-64
2022/10/11 01:28:18;;;;;;;24.77;6.93;;;;;;;;;;4962566;28;20062;-64
2022/10/11 01:30:45;;;;;;;22.80;6.07;;;;;;;;;;4955391;28;20051;-65
2022/10/11 01:33:11;;;;;;;20.63;5.40;;;;;;;;;;4957832;28;20394;-64
2022/10/11 01:35:49;;;;;;;26.10;6.07;;;;;;;;;;4960468;28;20101;-64
2022/10/11 01:38:24;;;;;;;23.57;6.13;;;;;;;;;;4960220;28;20051;-64
2022/10/11 01:40:56;;;;;;;30.87;7.17;;;;;;;;;;4959825;28;20047;-64
2022/10/11 01:43:23;;;;;;;32.20;7.67;;;;;;;;;;4959220;28;20074;-64
2022/10/11 01:45:51;;;;;;;24.10;7.10;;;;;;;;;;4960715;28;20050;-64
2022/10/11 01:48:17;;;;;;;26.90;6.77;;;;;;;;;;4962693;28;20551;-64
2022/10/11 01:50:44;;;;;;;30.13;7.90;;;;;;;;;;4963269;28;20081;-64
2022/10/11 01:53:25;;;;;;;36.27;8.10;;;;;;;;;;4956664;28;20046;-63
2022/10/11 01:56:17;;;;;;;26.37;7.43;;;;;;;;;;4957181;28;20058;-64
2022/10/11 01:58:56;;;;;;;31.07;7.60;;;;;;;;;;4958737;28;20058;-64
2022/10/11 02:01:22;;;;;;;26.53;8.40;;;;;;;;;;4963232;28;20043;-64
2022/10/11 02:03:50;;;;;;;30.43;9.07;;;;;;;;;;4961852;28;20457;-64
2022/10/11 02:06:21;;;;;;;42.50;9.30;;;;;;;;;;4956259;28;20054;-64
2022/10/11 02:09:06;;;;;;;26.23;8.60;;;;;;;;;;4961203;28;20044;-64
2022/10/11 02:11:34;;;;;;;29.23;8.50;;;;;;;;;;4957498;28;20061;-64
2022/10/11 02:14:03;;;;;;;29.43;8.50;;;;;;;;;;4956212;28;20535;-64
2022/10/11 02:16:34;;;;;;;24.03;8.23;;;;;;;;;;4962071;28;20125;-64
2022/10/11 02:19:01;;;;;;;43.00;9.43;;;;;;;;;;4961090;28;20105;-64
2022/10/11 02:21:28;;;;;;;29.50;8.20;;;;;;;;;;4961253;28;20058;-64
2022/10/11 02:24:00;;;;;;;30.27;8.73;;;;;;;;;;4968639;28;20050;-64
2022/10/11 02:26:28;;;;;;;35.87;10.77;;;;;;;;;;4964915;28;20054;-64
2022/10/11 02:28:56;;;;;;;28.00;8.60;;;;;;;;;;4964934;28;20393;-64
2022/10/11 02:31:22;;;;;;;27.73;9.50;;;;;;;;;;4963797;28;20059;-64
2022/10/11 02:33:51;;;;;;;36.33;9.17;;;;;;;;;;4962307;28;20047;-64
2022/10/11 02:36:23;;;;;;;51.60;11.90;;;;;;;;;;4960715;28;20094;-64
2022/10/11 02:38:52;;;;;;;32.57;8.60;;;;;;;;;;4959361;28;20047;-64
2022/10/11 02:41:22;;;;;;;36.60;10.40;;;;;;;;;;4964995;28;20046;-64
2022/10/11 02:43:56;;;;;;;37.27;9.83;;;;;;;;;;4964342;28;20408;-64
2022/10/11 02:46:23;;;;;;;41.50;9.33;;;;;;;;;;4968848;28;20162;-64
2022/10/11 02:48:50;;;;;;;52.67;12.20;;;;;;;;;;4964719;28;20070;-64
2022/10/11 02:51:17;;;;;;;36.30;8.27;;;;;;;;;;4961803;28;20051;-64
2022/10/11 02:53:43;;;;;;;49.17;11.17;;;;;;;;;;4962560;28;20043;-64
2022/10/11 02:56:09;;;;;;;42.40;10.67;;;;;;;;;;4965917;28;20619;-64
2022/10/11 02:58:35;;;;;;;27.73;8.23;;;;;;;;;;4958534;28;20070;-64
2022/10/11 03:01:01;;;;;;;27.63;8.23;;;;;;;;;;4961975;28;20039;-64
2022/10/11 03:03:27;;;;;;;42.47;10.30;;;;;;;;;;4964966;28;20081;-64
2022/10/11 03:05:57;;;;;;;40.37;10.57;;;;;;;;;;4972169;28;20055;-64
2022/10/11 03:08:23;;;;;;;35.07;9.73;;;;;;;;;;4952435;29;20162;-64
2022/10/11 03:10:49;;;;;;;36.40;11.63;;;;;;;;;;4952907;29;20126;-64
2022/10/11 03:13:15;;;;;;;30.67;9.83;;;;;;;;;;4978838;28;20049;-64
2022/10/11 03:15:41;;;;;;;41.93;10.90;;;;;;;;;;4991321;28;20043;-64
2022/10/11 03:18:07;;;;;;;32.93;9.40;;;;;;;;;;4991293;28;20104;-64
2022/10/11 03:20:33;;;;;;;42.70;12.23;;;;;;;;;;4990031;28;20058;-64
2022/10/11 03:22:59;;;;;;;35.10;10.90;;;;;;;;;;4990108;28;20082;-64
2022/10/11 03:25:25;;;;;;;34.20;10.73;;;;;;;;;;4990112;28;20140;-64
2022/10/11 03:27:51;;;;;;;61.00;12.23;;;;;;;;;;4991446;28;20883;-64
2022/10/11 03:30:18;;;;;;;43.33;10.77;;;;;;;;;;4990715;28;20142;-64
2022/10/11 03:32:45;;;;;;;44.23;9.90;;;;;;;;;;4990181;28;20133;-64
2022/10/11 03:35:11;;;;;;;82.60;15.93;;;;;;;;;;4991136;28;20049;-64
2022/10/11 03:37:37;;;;;;;42.17;9.63;;;;;;;;;;4989404;28;20051;-64
2022/10/11 03:40:04;;;;;;;24.57;7.67;;;;;;;;;;4985288;28;20182;-64
2022/10/11 03:42:30;;;;;;;28.27;6.87;;;;;;;;;;4971376;28;20051;-64
2022/10/11 03:44:56;;;;;;;30.13;8.43;;;;;;;;;;4970911;28;20047;-64
2022/10/11 03:47:22;;;;;;;25.40;6.87;;;;;;;;;;4971529;28;20051;-64
2022/10/11 03:49:48;;;;;;;36.47;9.87;;;;;;;;;;4971273;28;20042;-64
2022/10/11 03:52:14;;;;;;;23.80;7.50;;;;;;;;;;4970939;28;20050;-64
2022/10/11 03:54:40;;;;;;;37.47;8.77;;;;;;;;;;4971416;28;20440;-64
2022/10/11 03:57:06;;;;;;;33.73;9.10;;;;;;;;;;4971716;28;20122;-64
2022/10/11 03:59:32;;;;;;;30.03;8.83;;;;;;;;;;4971007;28;20062;-64
2022/10/11 04:01:58;;;;;;;33.63;8.60;;;;;;;;;;4971060;28;20068;-64
2022/10/11 04:04:24;;;;;;;28.50;9.23;;;;;;;;;;4971098;28;20055;-64
2022/10/11 04:06:50;;;;;;;41.87;10.53;;;;;;;;;;4970713;28;20039;-64
2022/10/11 04:09:16;;;;;;;26.90;8.50;;;;;;;;;;4988440;28;20460;-64
2022/10/11 04:11:42;;;;;;;25.43;7.97;;;;;;;;;;4990572;28;20137;-64
2022/10/11 04:14:08;;;;;;;30.30;7.00;;;;;;;;;;4990596;28;20126;-64
2022/10/11 04:16:37;;;;;;;35.33;8.40;;;;;;;;;;4990157;28;20046;-64
2022/10/11 04:19:03;;;;;;;37.00;8.40;;;;;;;;;;4990481;28;20054;-65
2022/10/11 04:21:29;;;;;;;36.80;9.30;;;;;;;;;;4990296;28;20053;-64
2022/10/11 04:23:55;;;;;;;26.77;8.30;;;;;;;;;;4990191;28;20046;-65
2022/10/11 04:26:21;;;;;;;23.30;7.27;;;;;;;;;;4990040;28;20054;-65
2022/10/11 04:28:47;;;;;;;26.53;7.57;;;;;;;;;;4988955;28;20049;-65
2022/10/11 04:31:13;;;;;;;34.17;10.53;;;;;;;;;;4989712;28;20109;-65
2022/10/11 04:33:40;;;;;;;32.60;7.33;;;;;;;;;;4987851;28;20050;-65
2022/10/11 04:36:06;;;;;;;21.90;7.23;;;;;;;;;;4979606;28;20078;-65
2022/10/11 04:38:32;;;;;;;43.73;7.97;;;;;;;;;;4970227;28;20058;-65
2022/10/11 04:41:08;;;;;;;25.73;7.13;;;;;;;;;;4969096;28;20061;-65
2022/10/11 04:43:35;;;;;;;30.83;7.43;;;;;;;;;;4968606;28;20078;-65
2022/10/11 04:46:01;;;;;;;33.50;9.50;;;;;;;;;;4970152;28;20050;-65
2022/10/11 04:48:27;;;;;;;21.07;6.90;;;;;;;;;;4968325;28;20093;-65
2022/10/11 04:50:53;;;;;;;26.23;7.70;;;;;;;;;;4969719;28;20063;-65
2022/10/11 04:53:19;;;;;;;35.53;8.30;;;;;;;;;;4970117;28;20145;-65
2022/10/11 04:55:54;;;;;;;33.03;10.73;;;;;;;;;;4969723;28;20039;-65
2022/10/11 04:58:20;;;;;;;24.93;7.13;;;;;;;;;;4968849;28;20053;-65
2022/10/11 05:00:46;;;;;;;30.50;7.80;;;;;;;;;;4968802;28;20051;-64
2022/10/11 05:03:12;;;;;;;31.80;9.53;;;;;;;;;;4970682;28;20051;-65
2022/10/11 05:05:38;;;;;;;34.10;9.77;;;;;;;;;;4969482;28;20108;-65
2022/10/11 05:08:04;;;;;;;24.47;8.10;;;;;;;;;;4987009;28;20539;-65
2022/10/11 05:10:30;;;;;;;40.83;10.17;;;;;;;;;;4986421;28;20050;-65
2022/10/11 05:12:57;;;;;;;32.83;9.03;;;;;;;;;;4987621;28;20054;-65
2022/10/11 05:15:23;;;;;;;36.03;9.53;;;;;;;;;;4987585;28;20050;-65
2022/10/11 05:17:49;;;;;;;29.93;9.40;;;;;;;;;;4985136;28;20543;-64
2022/10/11 05:20:15;;;;;;;26.20;8.20;;;;;;;;;;4987652;28;20652;-65
2022/10/11 05:22:41;;;;;;;33.70;9.30;;;;;;;;;;4989014;28;20085;-65
2022/10/11 05:25:07;;;;;;;29.27;10.33;;;;;;;;;;4989222;28;20535;-65
2022/10/11 05:27:33;;;;;;;33.40;11.53;;;;;;;;;;4988572;28;20045;-65
2022/10/11 05:29:59;;;;;;;23.63;9.60;;;;;;;;;;4971533;28;20070;-65
2022/10/11 05:32:25;;;;;;;37.07;10.77;;;;;;;;;;4969673;28;20576;-65
2022/10/11 05:34:51;;;;;;;30.60;10.17;;;;;;;;;;4969421;28;20054;-65
2022/10/11 05:37:17;;;;;;;26.53;11.00;;;;;;;;;;4969210;28;20413;-64
2022/10/11 05:39:43;;;;;;;35.10;10.70;;;;;;;;;;4969713;28;20053;-65
2022/10/11 05:42:09;;;;;;;35.27;12.53;;;;;;;;;;4968336;28;20043;-65
2022/10/11 05:44:35;;;;;;;37.03;10.73;;;;;;;;;;4969525;28;20043;-65
2022/10/11 05:47:01;;;;;;;37.93;11.63;;;;;;;;;;4985672;28;20077;-65
2022/10/11 05:49:27;;;;;;;38.93;12.17;;;;;;;;;;4989049;28;20501;-65
2022/10/11 05:51:53;;;;;;;34.73;11.33;;;;;;;;;;4988408;28;20046;-65
2022/10/11 05:54:19;;;;;;;31.97;10.80;;;;;;;;;;4989336;28;20050;-65
2022/10/11 05:56:45;;;;;;;41.63;13.43;;;;;;;;;;4989073;28;20057;-65
2022/10/11 05:59:11;;;;;;;34.83;13.23;;;;;;;;;;4991810;28;20062;-65
2022/10/11 06:01:37;;;;;;;36.57;11.90;;;;;;;;;;4992041;28;20050;-64
2022/10/11 06:04:04;;;;;;;44.30;11.80;;;;;;;;;;4990950;28;20397;-65
2022/10/11 06:06:30;;;;;;;55.17;12.63;;;;;;;;;;4991851;28;20081;-65
2022/10/11 06:08:56;;;;;;;27.80;11.30;;;;;;;;;;4992479;28;20502;-65
2022/10/11 06:11:24;;;;;;;42.33;12.13;;;;;;;;;;4981518;28;20050;-65
2022/10/11 06:13:52;;;;;;;31.20;10.20;;;;;;;;;;4972766;28;20065;-65
2022/10/11 06:16:18;;;;;;;33.73;12.53;;;;;;;;;;4972670;28;20047;-65
2022/10/11 06:18:44;;;;;;;35.20;12.40;;;;;;;;;;4972561;28;20062;-64
2022/10/11 06:21:11;;;;;;;34.83;10.47;;;;;;;;;;4972352;28;20055;-64
2022/10/11 06:23:38;;;;;;;28.03;11.20;;;;;;;;;;4972728;28;20579;-65
2022/10/11 06:26:07;;;;;;;34.57;12.80;;;;;;;;;;4972715;28;20089;-65
2022/10/11 06:28:34;;;;;;;37.43;12.60;;;;;;;;;;4972340;28;20134;-65
2022/10/11 06:31:02;;;;;;;30.33;12.33;;;;;;;;;;4972488;28;20059;-65
2022/10/11 06:33:28;;;;;;;32.73;11.37;;;;;;;;;;4971786;28;20059;-65
2022/10/11 06:35:58;;;;;;;45.10;13.07;;;;;;;;;;4973210;28;20050;-65
2022/10/11 06:38:25;;;;;;;29.67;12.37;;;;;;;;;;4970905;28;20109;-64
2022/10/11 06:40:51;;;;;;;35.67;12.73;;;;;;;;;;4972194;28;20050;-65
2022/10/11 06:43:17;;;;;;;42.67;13.20;;;;;;;;;;4972044;28;20057;-65
2022/10/11 06:45:43;;;;;;;40.20;13.03;;;;;;;;;;4972341;28;20082;-65
2022/10/11 06:48:09;;;;;;;33.37;11.20;;;;;;;;;;4970271;28;20465;-65
2022/10/11 06:50:37;;;;;;;35.77;12.83;;;;;;;;;;4971888;28;20051;-65
2022/10/11 06:53:03;;;;;;;25.17;10.50;;;;;;;;;;4972125;28;20427;-65
2022/10/11 06:55:29;;;;;;;26.10;12.80;;;;;;;;;;4972127;28;20057;-65
2022/10/11 06:57:55;;;;;;;27.97;10.70;;;;;;;;;;4970655;28;20058;-65
2022/10/11 07:00:21;;;;;;;25.87;11.43;;;;;;;;;;4969594;28;20097;-65
2022/10/11 07:02:48;;;;;;;30.07;11.80;;;;;;;;;;4971497;28;20126;-65
2022/10/11 07:05:14;;;;;;;40.17;12.07;;;;;;;;;;4971630;28;20122;-64
2022/10/11 07:07:40;;;;;;;19.53;8.70;;;;;;;;;;4970715;28;20409;-65
2022/10/11 07:10:06;;;;;;;32.77;11.93;;;;;;;;;;4971626;28;20052;-65
2022/10/11 07:12:32;;;;;;;37.23;12.17;;;;;;;;;;4971947;28;20544;-64
2022/10/11 07:14:58;;;;;;;36.43;11.70;;;;;;;;;;4971514;28;20251;-64
2022/10/11 07:17:25;;;;;;;27.80;9.00;;;;;;;;;;4971710;28;20146;-65
2022/10/11 07:19:51;;;;;;;39.10;10.93;;;;;;;;;;4970960;28;20526;-65
2022/10/11 07:22:17;;;;;;;39.80;13.57;;;;;;;;;;4970652;28;20050;-64
2022/10/11 07:24:43;;;;;;;26.57;8.77;;;;;;;;;;4965451;28;20449;-64
2022/10/11 07:27:09;;;;;;;25.47;8.43;;;;;;;;;;4950937;28;20058;-65
2022/10/11 07:29:35;;;;;;;23.27;8.53;;;;;;;;;;4963044;28;20055;-65
2022/10/11 07:32:01;;;;;;;35.17;11.50;;;;;;;;;;4968084;28;20051;-64
2022/10/11 07:34:27;;;;;;;22.90;8.03;;;;;;;;;;4953895;28;20046;-65
2022/10/11 07:36:53;;;;;;;22.53;7.83;;;;;;;;;;4951950;28;20565;-65
2022/10/11 07:39:19;;;;;;;21.63;8.30;;;;;;;;;;4959758;28;20042;-64
2022/10/11 07:41:45;;;;;;;26.77;8.23;;;;;;;;;;4969875;28;20074;-65
2022/10/11 07:44:11;;;;;;;28.27;9.47;;;;;;;;;;4971073;28;20049;-65
2022/10/11 07:46:37;;;;;;;25.77;8.20;;;;;;;;;;4952498;28;20043;-65
2022/10/11 07:49:03;;;;;;;21.23;7.40;;;;;;;;;;4956937;28;20473;-64
2022/10/11 07:51:29;;;;;;;26.30;7.13;;;;;;;;;;4970323;28;20082;-65
2022/10/11 07:53:56;;;;;;;18.60;6.63;;;;;;;;;;4969870;28;20606;-65
2022/10/11 07:56:24;;;;;;;20.13;7.37;;;;;;;;;;4970907;28;20049;-65
2022/10/11 07:58:51;;;;;;;23.60;9.20;;;;;;;;;;4970712;28;20057;-65
2022/10/11 08:01:17;;;;;;;23.70;8.33;;;;;;;;;;4970958;28;20050;-65
2022/10/11 08:03:43;;;;;;;21.67;6.77;;;;;;;;;;4969778;28;20093;-65
2022/10/11 08:06:11;;;;;;;21.83;5.67;;;;;;;;;;4970069;28;20066;-65
2022/10/11 08:08:37;;;;;;;19.13;5.50;;;;;;;;;;4969109;28;20042;-65
2022/10/11 08:11:03;;;;;;;13.30;5.70;;;;;;;;;;4970841;28;20085;-65
2022/10/11 08:13:29;;;;;;;19.97;8.53;;;;;;;;;;4970549;28;20042;-64
2022/10/11 08:15:55;;;;;;;22.50;6.47;;;;;;;;;;4970053;28;20055;-64
2022/10/11 08:18:22;;;;;;;20.87;6.07;;;;;;;;;;4969568;28;20085;-64
2022/10/11 08:20:48;;;;;;;19.50;5.60;;;;;;;;;;4969968;28;20489;-64
2022/10/11 08:23:15;;;;;;;23.37;7.03;;;;;;;;;;4970010;28;20055;-64
2022/10/11 08:25:42;;;;;;;19.77;6.23;;;;;;;;;;4970340;28;20325;-64
2022/10/11 08:28:09;;;;;;;15.57;5.30;;;;;;;;;;4969343;28;20066;-65
2022/10/11 08:30:35;;;;;;;18.63;6.17;;;;;;;;;;4967801;28;20137;-64
2022/10/11 08:33:01;;;;;;;19.23;6.20;;;;;;;;;;4955475;28;20053;-64
2022/10/11 08:35:27;;;;;;;16.60;5.43;;;;;;;;;;4960814;28;20496;-65
2022/10/11 08:37:53;;;;;;;23.30;7.03;;;;;;;;;;4955506;28;20436;-64
2022/10/11 08:40:21;;;;;;;23.00;6.97;;;;;;;;;;4959693;28;20046;-64
2022/10/11 08:42:59;;;;;;;19.27;5.77;;;;;;;;;;4959528;28;20039;-64
2022/10/11 08:45:34;;;;;;;15.83;5.23;;;;;;;;;;4961269;28;20093;-64
2022/10/11 08:48:06;;;;;;;20.33;6.50;;;;;;;;;;4956000;28;20051;-65
2022/10/11 08:50:33;;;;;;;17.30;5.80;;;;;;;;;;4968691;28;20058;-64
2022/10/11 08:53:02;;;;;;;19.50;4.63;;;;;;;;;;4969614;28;20065;-64
2022/10/11 08:55:46;;;;;;;19.40;4.63;;;;;;;;;;4968498;28;20490;-64
2022/10/11 08:58:14;;;;;;;18.10;5.03;;;;;;;;;;4954696;28;20512;-65
2022/10/11 09:00:41;;;;;;;16.57;4.87;;;;;;;;;;4969416;28;20038;-65
2022/10/11 09:03:16;;;;;;;20.00;5.03;;;;;;;;;;4967687;28;20135;-65
2022/10/11 09:05:54;;;;;;;15.93;4.73;;;;;;;;;;4969334;28;20046;-65
2022/10/11 09:08:22;;;;;;;19.83;4.40;;;;;;;;;;4966597;28;20043;-65
2022/10/11 09:11:24;;;;;;;15.27;4.67;;;;;;;;;;4963546;28;20045;-65
2022/10/11 09:13:52;;;;;;;13.17;3.57;;;;;;;;;;4928465;29;20087;-65
2022/10/11 09:16:33;;;;;;;26.33;5.70;;;;;;;;;;4959933;28;20161;-64
2022/10/11 09:19:22;;;;;;;12.67;3.73;;;;;;;;;;4970388;28;20515;-65
2022/10/11 09:21:51;;;;;;;15.07;3.03;;;;;;;;;;4976751;28;20042;-65
2022/10/11 09:24:36;;;;;;;13.63;3.07;;;;;;;;;;4988501;28;20054;-65
2022/10/11 09:27:07;;;;;;;12.87;3.50;;;;;;;;;;4988955;28;20520;-65
2022/10/11 09:29:50;;;;;;;8.70;2.97;;;;;;;;;;4986701;28;20063;-65
2022/10/11 09:32:19;;;;;;;15.15;3.15;;;;;;;;;;4987510;28;20408;-65
2022/10/11 09:34:46;;;;;;;11.67;2.43;;;;;;;;;;4972800;28;20126;-64
2022/10/11 09:37:12;;;;;;;13.23;2.83;;;;;;;;;;4973256;28;20575;-65
2022/10/11 09:39:45;;;;;;;18.37;3.53;;;;;;;;;;4983154;28;20125;-65
2022/10/11 09:42:11;;;;;;;12.18;3.05;;;;;;;;;;4991348;28;20057;-65
2022/10/11 09:44:39;;;;;;;13.87;3.10;;;;;;;;;;4991800;28;20077;-65
2022/10/11 09:47:06;;;;;;;14.63;3.77;;;;;;;;;;4992604;28;20434;-64
2022/10/11 09:49:36;;;;;;;15.20;3.37;;;;;;;;;;4982146;28;20567;-64
2022/10/11 09:52:03;;;;;;;8.67;2.50;;;;;;;;;;4972756;28;20467;-64
2022/10/11 09:54:40;;;;;;;11.97;2.80;;;;;;;;;;4987875;28;20133;-64
2022/10/11 09:57:06;;;;;;;15.73;3.77;;;;;;;;;;4992217;28;20082;-65
2022/10/11 09:59:35;;;;;;;16.50;3.40;;;;;;;;;;4990797;28;20042;-64
2022/10/11 10:02:10;;;;;;;14.50;3.10;;;;;;;;;;4983140;28;20057;-64
2022/10/11 10:04:53;;;;;;;12.00;2.63;;;;;;;;;;4960768;28;20587;-65
2022/10/11 10:07:20;;;;;;;14.85;2.53;;;;;;;;;;4965099;28;20078;-65
2022/10/11 10:09:46;;;;;;;12.33;2.73;;;;;;;;;;4961122;28;20070;-65
2022/10/11 10:12:13;;;;;;;14.90;3.53;;;;;;;;;;4966168;28;20051;-65
2022/10/11 10:14:40;;;;;;;13.23;2.33;;;;;;;;;;4963342;28;20043;-64
2022/10/11 10:17:12;;;;;;;13.10;2.93;;;;;;;;;;4962211;28;20042;-64
2022/10/11 10:19:40;;;;;;;13.85;3.67;;;;;;;;;;4969229;28;20043;-64
2022/10/11 10:22:06;;;;;;;17.80;3.03;;;;;;;;;;4965232;28;20401;-64
2022/10/11 10:24:32;;;;;;;13.53;2.70;;;;;;;;;;4971477;28;20053;-64
2022/10/11 10:27:11;;;;;;;14.80;3.60;;;;;;;;;;4968620;28;20039;-65
2022/10/11 10:29:37;;;;;;;16.03;2.73;;;;;;;;;;4971728;28;20062;-64
2022/10/11 10:32:16;;;;;;;16.70;2.83;;;;;;;;;;4962812;28;20622;-64
2022/10/11 10:35:09;;;;;;;13.63;2.70;;;;;;;;;;4969066;28;20047;-65
2022/10/11 10:38:07;;;;;;;15.03;2.57;;;;;;;;;;4969999;28;20104;-64
2022/10/11 10:40:48;;;;;;;12.73;3.23;;;;;;;;;;4939316;28;20300;-64
2022/10/11 10:43:19;;;;;;;10.00;2.00;;;;;;;;;;4971030;28;20053;-64
2022/10/11 10:45:56;;;;;;;11.77;2.47;;;;;;;;;;4971087;28;20043;-64
2022/10/11 10:48:52;;;;;;;12.33;2.70;;;;;;;;;;4971644;28;20043;-64
2022/10/11 10:51:33;;;;;;;18.43;3.17;;;;;;;;;;4958580;28;20525;-63
2022/10/11 10:54:12;;;;;;;10.80;2.10;;;;;;;;;;4971340;28;20122;-64
2022/10/11 10:56:54;;;;;;;15.17;3.03;;;;;;;;;;4970149;28;20054;-64
2022/10/11 10:59:20;;;;;;;11.83;2.57;;;;;;;;;;4970987;28;20050;-63
2022/10/11 11:01:53;;;;;;;13.33;2.50;;;;;;;;;;4971387;28;20089;-63
2022/10/11 11:04:27;;;;;;;9.23;2.58;;;;;;;;;;4971436;28;20108;-63
2022/10/11 11:06:58;;;;;;;14.50;2.37;;;;;;;;;;4971492;28;20050;-63
2022/10/11 11:09:29;;;;;;;9.83;2.53;;;;;;;;;;4970839;28;20512;-63
2022/10/11 11:12:04;;;;;;;12.17;2.67;;;;;;;;;;4971273;28;20050;-63
2022/10/11 11:14:30;;;;;;;15.93;2.47;;;;;;;;;;4971309;28;20051;-63
2022/10/11 11:17:05;;;;;;;13.17;2.33;;;;;;;;;;4971013;28;20122;-63
2022/10/11 11:19:35;;;;;;;11.43;2.23;;;;;;;;;;4970617;28;20174;-63
2022/10/11 11:22:19;;;;;;;13.00;2.90;;;;;;;;;;4970903;28;20513;-63
2022/10/11 11:25:12;;;;;;;11.23;2.47;;;;;;;;;;4971144;28;20101;-62
2022/10/11 11:27:38;;;;;;;8.27;1.90;;;;;;;;;;4970807;28;20047;-62
2022/10/11 11:30:24;;;;;;;12.40;2.60;;;;;;;;;;4970741;28;20062;-63
2022/10/11 11:32:50;;;;;;;10.50;2.57;;;;;;;;;;4970186;28;20054;-62
2022/10/11 11:35:22;;;;;;;11.03;1.60;;;;;;;;;;4970692;28;20055;-63
2022/10/11 11:37:50;;;;;;;10.27;2.30;;;;;;;;;;4970777;28;20058;-62
2022/10/11 11:40:18;;;;;;;10.37;2.70;;;;;;;;;;4970236;28;20050;-62
2022/10/11 11:42:52;;;;;;;15.60;2.53;;;;;;;;;;4970027;28;20050;-62
2022/10/11 11:45:21;;;;;;;13.40;2.33;;;;;;;;;;4970153;28;20123;-62
2022/10/11 11:47:52;;;;;;;6.23;2.23;;;;;;;;;;4970329;28;20047;-62
2022/10/11 11:50:25;;;;;;;11.70;2.63;;;;;;;;;;4970137;28;20078;-62
2022/10/11 11:53:00;;;;;;;12.90;2.60;;;;;;;;;;4970197;28;20134;-62
2022/10/11 11:55:41;;;;;;;11.77;2.53;;;;;;;;;;4968934;28;20054;-62
2022/10/11 11:58:33;;;;;;;7.70;2.20;;;;;;;;;;4970486;28;20134;-62
2022/10/11 12:01:18;;;;;;;14.37;2.30;;;;;;;;;;4970317;28;20133;-62
2022/10/11 12:03:47;;;;;;;11.53;2.40;;;;;;;;;;4970304;28;20062;-61
2022/10/11 12:06:13;;;;;;;11.67;2.20;;;;;;;;;;4969869;28;20050;-62
2022/10/11 12:08:42;;;;;;;9.20;1.77;;;;;;;;;;4970374;28;20469;-61
2022/10/11 12:11:18;;;;;;;8.67;2.57;;;;;;;;;;4970269;28;20050;-62
2022/10/11 12:13:45;;;;;;;12.53;2.60;;;;;;;;;;4970170;28;20412;-61
2022/10/11 12:16:13;;;;;;;8.97;1.77;;;;;;;;;;4969464;28;20145;-62
2022/10/11 12:18:51;;;;;;;10.03;2.30;;;;;;;;;;4969762;28;20046;-61
2022/10/11 12:21:20;;;;;;;9.27;2.30;;;;;;;;;;4970076;28;20054;-62
2022/10/11 12:23:48;;;;;;;10.47;2.07;;;;;;;;;;4969788;28;20109;-61
2022/10/11 12:26:32;;;;;;;11.57;2.87;;;;;;;;;;4969967;28;20073;-62
2022/10/11 12:29:00;;;;;;;11.93;2.13;;;;;;;;;;4969126;28;20600;-62
2022/10/11 12:31:31;;;;;;;8.93;2.13;;;;;;;;;;4969672;28;20161;-62
2022/10/11 12:34:00;;;;;;;10.50;2.03;;;;;;;;;;4969320;28;20058;-62
2022/10/11 12:36:29;;;;;;;10.10;1.90;;;;;;;;;;4969186;28;20050;-62
2022/10/11 12:39:14;;;;;;;9.17;2.43;;;;;;;;;;4969463;28;20346;-62
2022/10/11 12:41:49;;;;;;;8.33;2.07;;;;;;;;;;4969245;28;20124;-61
2022/10/11 12:44:17;;;;;;;11.00;3.27;;;;;;;;;;4969236;28;20054;-62
2022/10/11 12:46:50;;;;;;;9.00;1.63;;;;;;;;;;4969285;28;20526;-62
2022/10/11 12:49:31;;;;;;;9.85;1.80;;;;;;;;;;4969074;28;20359;-62
2022/10/11 12:52:15;;;;;;;9.73;2.63;;;;;;;;;;4968720;28;20090;-62
2022/10/11 12:55:00;;;;;;;13.97;2.10;;;;;;;;;;4969315;28;20309;-62
2022/10/11 12:57:32;;;;;;;9.70;2.00;;;;;;;;;;4969395;28;20073;-62
2022/10/11 13:00:19;;;;;;;10.70;2.03;;;;;;;;;;4969287;28;20055;-62
2022/10/11 13:02:46;;;;;;;8.20;1.80;;;;;;;;;;4967962;28;20050;-62
2022/10/11 13:05:15;;;;;;;9.50;2.40;;;;;;;;;;4968852;28;20054;-62
2022/10/11 13:07:42;;;;;;;11.97;2.37;;;;;;;;;;4969197;28;20134;-62
2022/10/11 13:10:12;;;;;;;7.10;1.60;;;;;;;;;;4969260;28;20081;-62
2022/10/11 13:12:42;;;;;;;9.23;2.13;;;;;;;;;;4969113;28;20081;-62
2022/10/11 13:15:12;;;;;;;9.50;2.00;;;;;;;;;;4969304;28;20042;-62
2022/10/11 13:17:39;;;;;;;10.30;1.90;;;;;;;;;;4968398;28;20043;-62
2022/10/11 13:20:17;;;;;;;8.90;2.30;;;;;;;;;;4969166;28;20634;-62
2022/10/11 13:22:46;;;;;;;7.77;2.10;;;;;;;;;;4968964;28;20527;-62
2022/10/11 13:25:14;;;;;;;8.50;2.90;;;;;;;;;;4969103;28;20515;-62
2022/10/11 13:27:40;;;;;;;15.20;2.63;;;;;;;;;;4969076;28;20093;-62
2022/10/11 13:30:10;;;;;;;8.07;2.07;;;;;;;;;;4968484;28;20065;-62
2022/10/11 13:32:36;;;;;;;8.63;1.80;;;;;;;;;;4968547;28;20061;-62
2022/10/11 13:35:08;;;;;;;9.03;2.23;;;;;;;;;;4968868;28;20073;-62
2022/10/11 13:37:40;;;;;;;9.07;2.20;;;;;;;;;;4968756;28;20053;-63
2022/10/11 13:40:06;;;;;;;7.83;1.73;;;;;;;;;;4969023;28;20039;-62
2022/10/11 13:42:33;;;;;;;7.23;1.83;;;;;;;;;;4968488;28;20047;-62
2022/10/11 13:44:59;;;;;;;8.23;2.23;;;;;;;;;;4968410;28;20456;-62
2022/10/11 13:47:28;;;;;;;9.77;1.93;;;;;;;;;;4968757;28;20046;-62
2022/10/11 13:50:02;;;;;;;7.67;2.00;;;;;;;;;;4968588;28;20396;-62
2022/10/11 13:52:28;;;;;;;11.90;2.37;;;;;;;;;;4968586;28;20109;-62
2022/10/11 13:55:03;;;;;;;6.23;1.80;;;;;;;;;;4968621;28;20121;-63
2022/10/11 13:57:42;;;;;;;10.87;2.27;;;;;;;;;;4968962;28;20078;-62
2022/10/11 14:00:28;;;;;;;9.97;3.00;;;;;;;;;;4968782;28;20051;-62
2022/10/11 14:02:57;;;;;;;8.37;2.50;;;;;;;;;;4958707;28;20059;-62
2022/10/11 14:05:30;;;;;;;11.80;2.63;;;;;;;;;;4968267;28;20057;-62
2022/10/11 14:07:58;;;;;;;8.33;2.50;;;;;;;;;;4968986;28;20054;-62
2022/10/11 14:10:24;;;;;;;7.00;1.70;;;;;;;;;;4968769;28;20058;-62
2022/10/11 14:12:57;;;;;;;6.63;2.57;;;;;;;;;;4968773;28;20050;-62
2022/10/11 14:15:26;;;;;;;8.83;2.53;;;;;;;;;;4968130;28;20053;-62
2022/10/11 14:17:52;;;;;;;6.80;1.50;;;;;;;;;;4970333;28;20058;-62
2022/10/11 14:20:25;;;;;;;11.10;2.00;;;;;;;;;;4972078;28;20504;-62
2022/10/11 14:22:52;;;;;;;7.33;1.80;;;;;;;;;;4971941;28;20047;-62
2022/10/11 14:25:18;;;;;;;8.70;2.27;;;;;;;;;;4971497;28;20051;-62
2022/10/11 14:27:45;;;;;;;8.33;2.23;;;;;;;;;;4972306;28;20086;-62
2022/10/11 14:30:21;;;;;;;7.07;2.57;;;;;;;;;;4971778;28;20065;-62
2022/10/11 14:32:48;;;;;;;10.67;2.13;;;;;;;;;;4972075;28;20105;-62
2022/10/11 14:35:16;;;;;;;11.97;3.00;;;;;;;;;;4971490;28;20054;-62
2022/10/11 14:37:42;;;;;;;10.77;2.30;;;;;;;;;;4971312;28;20043;-63
2022/10/11 14:40:11;;;;;;;8.90;2.03;;;;;;;;;;4971857;28;20485;-63
2022/10/11 14:42:37;;;;;;;9.83;2.30;;;;;;;;;;4971617;28;20121;-62